sensor_id;sensor_type;location;lat;lon;timestamp;P1;durP1;ratioP1;P2;durP2;ratioP2
33453;SDS011;39400;49.744;7.012;2022-12-20T00:00:45;5.45;;;3.08;;
33453;SDS011;39400;49.744;7.012;2022-12-20T00:03:11;4.10;;;2.42;;
33453;SDS011;39400;49.744;7.012;2022-12-20T00:05:37;3.92;;;2.53;;
33453;SDS011;39400;49.744;7.012;2022-12-20T00:08:03;5.93;;;2.33;;
33453;SDS011;39400;49.744;7.012;2022-12-20T00:10:28;4.43;;;2.10;;
33453;SDS011;39400;49.744;7.012;2022-12-20T00:12:54;3.45;;;2.35;;
33453;SDS011;39400;49.744;7.012;2022-12-20T00:15:19;3.45;;;2.50;;
33453;SDS011;39400;49.744;7.012;2022-12-20T00:17:44;4.38;;;2.47;;
33453;SDS011;39400;49.744;7.012;2022-12-20T00:20:10;8.02;;;2.40;;
33453;SDS011;39400;49.744;7.012;2022-12-20T00:22:35;4.40;;;2.00;;
33453;SDS011;39400;49.744;7.012;2022-12-20T00:25:01;5.35;;;2.97;;
33453;SDS011;39400;49.744;7.012;2022-12-20T00:27:26;7.30;;;3.38;;
33453;SDS011;39400;49.744;7.012;2022-12-20T00:29:51;3.65;;;2.03;;
33453;SDS011;39400;49.744;7.012;2022-12-20T00:32:17;8.95;;;2.70;;
33453;SDS011;39400;49.744;7.012;2022-12-20T00:34:42;5.57;;;2.80;;
33453;SDS011;39400;49.744;7.012;2022-12-20T00:37:07;5.32;;;2.92;;
33453;SDS011;39400;49.744;7.012;2022-12-20T00:39:32;5.80;;;1.70;;
33453;SDS011;39400;49.744;7.012;2022-12-20T00:41:58;3.53;;;2.28;;
33453;SDS011;39400;49.744;7.012;2022-12-20T00:44:23;4.03;;;2.22;;
33453;SDS011;39400;49.744;7.012;2022-12-20T00:46:48;6.13;;;3.03;;
33453;SDS011;39400;49.744;7.012;2022-12-20T00:49:14;4.80;;;2.95;;
33453;SDS011;39400;49.744;7.012;2022-12-20T00:51:39;9.30;;;4.20;;
33453;SDS011;39400;49.744;7.012;2022-12-20T00:54:04;6.10;;;3.47;;
33453;SDS011;39400;49.744;7.012;2022-12-20T00:56:30;8.88;;;3.10;;
33453;SDS011;39400;49.744;7.012;2022-12-20T00:58:56;10.35;;;4.65;;
33453;SDS011;39400;49.744;7.012;2022-12-20T01:01:27;16.52;;;5.13;;
33453;SDS011;39400;49.744;7.012;2022-12-20T01:03:55;14.75;;;6.47;;
33453;SDS011;39400;49.744;7.012;2022-12-20T01:06:21;8.20;;;4.28;;
33453;SDS011;39400;49.744;7.012;2022-12-20T01:08:48;9.98;;;3.42;;
33453;SDS011;39400;49.744;7.012;2022-12-20T01:11:20;5.30;;;2.42;;
33453;SDS011;39400;49.744;7.012;2022-12-20T01:13:59;5.78;;;2.60;;
33453;SDS011;39400;49.744;7.012;2022-12-20T01:16:31;4.95;;;2.47;;
33453;SDS011;39400;49.744;7.012;2022-12-20T01:19:05;3.28;;;2.15;;
33453;SDS011;39400;49.744;7.012;2022-12-20T01:21:31;6.68;;;2.53;;
33453;SDS011;39400;49.744;7.012;2022-12-20T01:23:57;4.15;;;2.03;;
33453;SDS011;39400;49.744;7.012;2022-12-20T01:26:24;2.88;;;2.00;;
33453;SDS011;39400;49.744;7.012;2022-12-20T01:28:52;4.22;;;2.20;;
33453;SDS011;39400;49.744;7.012;2022-12-20T01:31:18;4.97;;;2.13;;
33453;SDS011;39400;49.744;7.012;2022-12-20T01:33:44;8.63;;;3.35;;
33453;SDS011;39400;49.744;7.012;2022-12-20T01:36:33;4.80;;;2.08;;
33453;SDS011;39400;49.744;7.012;2022-12-20T01:39:04;9.30;;;2.13;;
33453;SDS011;39400;49.744;7.012;2022-12-20T01:41:41;4.30;;;2.25;;
33453;SDS011;39400;49.744;7.012;2022-12-20T01:46:42;3.55;;;2.05;;
33453;SDS011;39400;49.744;7.012;2022-12-20T01:49:11;7.25;;;2.22;;
33453;SDS011;39400;49.744;7.012;2022-12-20T01:51:46;5.40;;;2.42;;
33453;SDS011;39400;49.744;7.012;2022-12-20T01:54:17;7.43;;;2.67;;
33453;SDS011;39400;49.744;7.012;2022-12-20T01:56:48;9.43;;;1.85;;
33453;SDS011;39400;49.744;7.012;2022-12-20T01:59:17;6.32;;;1.85;;
33453;SDS011;39400;49.744;7.012;2022-12-20T02:01:43;7.60;;;2.25;;
33453;SDS011;39400;49.744;7.012;2022-12-20T02:04:10;5.88;;;2.30;;
33453;SDS011;39400;49.744;7.012;2022-12-20T02:06:35;4.57;;;1.92;;
33453;SDS011;39400;49.744;7.012;2022-12-20T02:09:01;7.50;;;2.38;;
33453;SDS011;39400;49.744;7.012;2022-12-20T02:16:34;2.35;;;1.63;;
33453;SDS011;39400;49.744;7.012;2022-12-20T02:19:22;6.88;;;2.60;;
33453;SDS011;39400;49.744;7.012;2022-12-20T02:27:53;3.97;;;1.75;;
33453;SDS011;39400;49.744;7.012;2022-12-20T02:30:24;3.58;;;2.03;;
33453;SDS011;39400;49.744;7.012;2022-12-20T02:33:02;8.27;;;2.63;;
33453;SDS011;39400;49.744;7.012;2022-12-20T02:35:35;2.85;;;1.67;;
33453;SDS011;39400;49.744;7.012;2022-12-20T02:38:04;3.78;;;2.13;;
33453;SDS011;39400;49.744;7.012;2022-12-20T02:43:27;4.60;;;1.80;;
33453;SDS011;39400;49.744;7.012;2022-12-20T02:45:56;12.40;;;2.53;;
33453;SDS011;39400;49.744;7.012;2022-12-20T02:48:24;4.28;;;2.13;;
33453;SDS011;39400;49.744;7.012;2022-12-20T02:50:54;6.05;;;1.88;;
33453;SDS011;39400;49.744;7.012;2022-12-20T02:53:23;3.53;;;2.00;;
33453;SDS011;39400;49.744;7.012;2022-12-20T02:55:53;10.35;;;2.38;;
33453;SDS011;39400;49.744;7.012;2022-12-20T03:01:13;4.93;;;1.75;;
33453;SDS011;39400;49.744;7.012;2022-12-20T03:03:45;3.42;;;1.92;;
33453;SDS011;39400;49.744;7.012;2022-12-20T03:06:11;4.50;;;1.83;;
33453;SDS011;39400;49.744;7.012;2022-12-20T03:08:36;4.25;;;1.98;;
33453;SDS011;39400;49.744;7.012;2022-12-20T03:11:02;7.38;;;2.20;;
33453;SDS011;39400;49.744;7.012;2022-12-20T03:13:30;5.20;;;2.35;;
33453;SDS011;39400;49.744;7.012;2022-12-20T03:16:03;2.95;;;1.92;;
33453;SDS011;39400;49.744;7.012;2022-12-20T03:18:30;3.70;;;2.42;;
33453;SDS011;39400;49.744;7.012;2022-12-20T03:20:55;5.28;;;2.50;;
33453;SDS011;39400;49.744;7.012;2022-12-20T03:23:21;6.47;;;2.28;;
33453;SDS011;39400;49.744;7.012;2022-12-20T03:25:47;5.63;;;2.72;;
33453;SDS011;39400;49.744;7.012;2022-12-20T03:28:21;5.15;;;2.20;;
33453;SDS011;39400;49.744;7.012;2022-12-20T03:30:46;5.20;;;2.50;;
33453;SDS011;39400;49.744;7.012;2022-12-20T03:33:11;2.75;;;2.20;;
33453;SDS011;39400;49.744;7.012;2022-12-20T03:35:38;9.18;;;2.50;;
33453;SDS011;39400;49.744;7.012;2022-12-20T03:38:05;4.65;;;2.20;;
33453;SDS011;39400;49.744;7.012;2022-12-20T03:40:30;3.67;;;2.05;;
33453;SDS011;39400;49.744;7.012;2022-12-20T03:42:55;6.45;;;2.33;;
33453;SDS011;39400;49.744;7.012;2022-12-20T03:45:21;2.50;;;1.60;;
33453;SDS011;39400;49.744;7.012;2022-12-20T03:47:47;4.03;;;2.28;;
33453;SDS011;39400;49.744;7.012;2022-12-20T03:50:12;4.78;;;2.35;;
33453;SDS011;39400;49.744;7.012;2022-12-20T03:52:39;3.53;;;1.88;;
33453;SDS011;39400;49.744;7.012;2022-12-20T03:55:04;4.47;;;2.33;;
33453;SDS011;39400;49.744;7.012;2022-12-20T03:57:42;7.60;;;2.42;;
33453;SDS011;39400;49.744;7.012;2022-12-20T04:00:21;4.55;;;2.22;;
33453;SDS011;39400;49.744;7.012;2022-12-20T04:02:50;3.00;;;1.83;;
33453;SDS011;39400;49.744;7.012;2022-12-20T04:05:15;5.63;;;2.67;;
33453;SDS011;39400;49.744;7.012;2022-12-20T04:07:41;3.83;;;2.30;;
33453;SDS011;39400;49.744;7.012;2022-12-20T04:10:06;4.13;;;2.60;;
33453;SDS011;39400;49.744;7.012;2022-12-20T04:12:32;4.03;;;1.92;;
33453;SDS011;39400;49.744;7.012;2022-12-20T04:14:58;4.38;;;2.35;;
33453;SDS011;39400;49.744;7.012;2022-12-20T04:17:24;8.15;;;2.78;;
33453;SDS011;39400;49.744;7.012;2022-12-20T04:19:49;4.45;;;2.22;;
33453;SDS011;39400;49.744;7.012;2022-12-20T04:22:16;5.40;;;2.40;;
33453;SDS011;39400;49.744;7.012;2022-12-20T04:24:49;4.90;;;2.17;;
33453;SDS011;39400;49.744;7.012;2022-12-20T04:27:21;6.57;;;2.67;;
33453;SDS011;39400;49.744;7.012;2022-12-20T04:29:49;4.40;;;2.63;;
33453;SDS011;39400;49.744;7.012;2022-12-20T04:32:16;3.70;;;2.10;;
33453;SDS011;39400;49.744;7.012;2022-12-20T04:34:42;10.75;;;2.90;;
33453;SDS011;39400;49.744;7.012;2022-12-20T04:37:08;5.60;;;2.20;;
33453;SDS011;39400;49.744;7.012;2022-12-20T04:39:43;3.80;;;2.08;;
33453;SDS011;39400;49.744;7.012;2022-12-20T04:42:20;9.88;;;3.10;;
33453;SDS011;39400;49.744;7.012;2022-12-20T04:44:45;5.10;;;2.25;;
33453;SDS011;39400;49.744;7.012;2022-12-20T04:47:13;4.70;;;3.08;;
33453;SDS011;39400;49.744;7.012;2022-12-20T04:49:38;4.25;;;2.35;;
33453;SDS011;39400;49.744;7.012;2022-12-20T04:52:03;6.60;;;2.50;;
33453;SDS011;39400;49.744;7.012;2022-12-20T04:54:30;7.10;;;2.60;;
33453;SDS011;39400;49.744;7.012;2022-12-20T04:57:00;7.57;;;2.33;;
33453;SDS011;39400;49.744;7.012;2022-12-20T04:59:26;3.53;;;2.20;;
33453;SDS011;39400;49.744;7.012;2022-12-20T05:01:53;4.28;;;2.58;;
33453;SDS011;39400;49.744;7.012;2022-12-20T05:04:35;3.47;;;2.10;;
33453;SDS011;39400;49.744;7.012;2022-12-20T05:07:01;5.70;;;2.78;;
33453;SDS011;39400;49.744;7.012;2022-12-20T05:09:27;4.47;;;2.53;;
33453;SDS011;39400;49.744;7.012;2022-12-20T05:11:54;5.50;;;1.95;;
33453;SDS011;39400;49.744;7.012;2022-12-20T05:14:19;4.60;;;1.90;;
33453;SDS011;39400;49.744;7.012;2022-12-20T05:16:44;7.07;;;2.10;;
33453;SDS011;39400;49.744;7.012;2022-12-20T05:19:10;6.25;;;2.40;;
33453;SDS011;39400;49.744;7.012;2022-12-20T05:21:38;7.65;;;2.17;;
33453;SDS011;39400;49.744;7.012;2022-12-20T05:24:04;5.75;;;2.33;;
33453;SDS011;39400;49.744;7.012;2022-12-20T05:26:36;4.13;;;2.10;;
33453;SDS011;39400;49.744;7.012;2022-12-20T05:29:04;6.07;;;2.25;;
33453;SDS011;39400;49.744;7.012;2022-12-20T05:31:32;2.88;;;2.30;;
33453;SDS011;39400;49.744;7.012;2022-12-20T05:33:57;6.43;;;3.00;;
33453;SDS011;39400;49.744;7.012;2022-12-20T05:36:27;4.95;;;2.22;;
33453;SDS011;39400;49.744;7.012;2022-12-20T05:38:55;3.97;;;2.00;;
33453;SDS011;39400;49.744;7.012;2022-12-20T05:41:20;5.90;;;2.38;;
33453;SDS011;39400;49.744;7.012;2022-12-20T05:43:48;4.32;;;1.88;;
33453;SDS011;39400;49.744;7.012;2022-12-20T05:46:15;4.18;;;1.73;;
33453;SDS011;39400;49.744;7.012;2022-12-20T05:48:51;5.45;;;2.47;;
33453;SDS011;39400;49.744;7.012;2022-12-20T05:51:16;3.72;;;2.33;;
33453;SDS011;39400;49.744;7.012;2022-12-20T05:53:55;2.95;;;1.52;;
33453;SDS011;39400;49.744;7.012;2022-12-20T05:56:32;4.43;;;2.10;;
33453;SDS011;39400;49.744;7.012;2022-12-20T05:58:58;9.77;;;2.90;;
33453;SDS011;39400;49.744;7.012;2022-12-20T06:01:23;1.90;;;1.30;;
33453;SDS011;39400;49.744;7.012;2022-12-20T06:03:53;5.53;;;1.90;;
33453;SDS011;39400;49.744;7.012;2022-12-20T06:06:20;6.60;;;1.60;;
33453;SDS011;39400;49.744;7.012;2022-12-20T06:08:46;5.57;;;1.85;;
33453;SDS011;39400;49.744;7.012;2022-12-20T06:11:38;3.75;;;2.17;;
33453;SDS011;39400;49.744;7.012;2022-12-20T06:14:07;3.50;;;2.03;;
33453;SDS011;39400;49.744;7.012;2022-12-20T06:16:34;6.20;;;2.30;;
33453;SDS011;39400;49.744;7.012;2022-12-20T06:19:02;5.22;;;1.70;;
33453;SDS011;39400;49.744;7.012;2022-12-20T06:21:28;2.78;;;1.35;;
33453;SDS011;39400;49.744;7.012;2022-12-20T06:23:53;4.00;;;1.92;;
33453;SDS011;39400;49.744;7.012;2022-12-20T06:26:19;5.63;;;2.80;;
33453;SDS011;39400;49.744;7.012;2022-12-20T06:28:50;4.10;;;1.65;;
33453;SDS011;39400;49.744;7.012;2022-12-20T06:31:15;3.13;;;1.80;;
33453;SDS011;39400;49.744;7.012;2022-12-20T06:33:44;1.77;;;1.33;;
33453;SDS011;39400;49.744;7.012;2022-12-20T06:36:13;2.97;;;1.58;;
33453;SDS011;39400;49.744;7.012;2022-12-20T06:38:38;4.70;;;1.38;;
33453;SDS011;39400;49.744;7.012;2022-12-20T06:41:04;8.52;;;2.08;;
33453;SDS011;39400;49.744;7.012;2022-12-20T06:43:30;3.67;;;1.60;;
33453;SDS011;39400;49.744;7.012;2022-12-20T06:45:55;7.07;;;2.35;;
33453;SDS011;39400;49.744;7.012;2022-12-20T06:48:21;2.78;;;1.33;;
33453;SDS011;39400;49.744;7.012;2022-12-20T06:50:48;6.45;;;1.63;;
33453;SDS011;39400;49.744;7.012;2022-12-20T06:53:15;2.20;;;1.27;;
33453;SDS011;39400;49.744;7.012;2022-12-20T06:55:40;4.75;;;1.95;;
33453;SDS011;39400;49.744;7.012;2022-12-20T06:58:06;4.30;;;1.92;;
33453;SDS011;39400;49.744;7.012;2022-12-20T07:00:31;5.45;;;1.50;;
33453;SDS011;39400;49.744;7.012;2022-12-20T07:02:57;2.60;;;1.50;;
33453;SDS011;39400;49.744;7.012;2022-12-20T07:05:23;4.32;;;1.67;;
33453;SDS011;39400;49.744;7.012;2022-12-20T07:07:48;3.38;;;1.52;;
33453;SDS011;39400;49.744;7.012;2022-12-20T07:10:15;4.22;;;1.60;;
33453;SDS011;39400;49.744;7.012;2022-12-20T07:12:40;1.92;;;1.13;;
33453;SDS011;39400;49.744;7.012;2022-12-20T07:15:06;3.45;;;1.48;;
33453;SDS011;39400;49.744;7.012;2022-12-20T07:17:31;6.72;;;1.80;;
33453;SDS011;39400;49.744;7.012;2022-12-20T07:19:57;6.05;;;1.52;;
33453;SDS011;39400;49.744;7.012;2022-12-20T07:22:22;6.30;;;1.63;;
33453;SDS011;39400;49.744;7.012;2022-12-20T07:24:47;7.32;;;2.15;;
33453;SDS011;39400;49.744;7.012;2022-12-20T07:27:13;4.82;;;1.92;;
33453;SDS011;39400;49.744;7.012;2022-12-20T07:29:38;5.57;;;1.95;;
33453;SDS011;39400;49.744;7.012;2022-12-20T07:32:04;6.07;;;1.48;;
33453;SDS011;39400;49.744;7.012;2022-12-20T07:34:29;6.05;;;1.67;;
33453;SDS011;39400;49.744;7.012;2022-12-20T07:36:55;3.45;;;1.50;;
33453;SDS011;39400;49.744;7.012;2022-12-20T07:39:20;4.20;;;1.60;;
33453;SDS011;39400;49.744;7.012;2022-12-20T07:41:46;3.10;;;1.70;;
33453;SDS011;39400;49.744;7.012;2022-12-20T07:44:15;2.85;;;1.40;;
33453;SDS011;39400;49.744;7.012;2022-12-20T07:46:44;2.65;;;1.25;;
33453;SDS011;39400;49.744;7.012;2022-12-20T07:49:10;5.97;;;1.55;;
33453;SDS011;39400;49.744;7.012;2022-12-20T07:51:37;3.22;;;1.45;;
33453;SDS011;39400;49.744;7.012;2022-12-20T07:54:11;7.03;;;2.13;;
33453;SDS011;39400;49.744;7.012;2022-12-20T07:56:41;4.53;;;1.48;;
33453;SDS011;39400;49.744;7.012;2022-12-20T07:59:09;5.75;;;1.67;;
33453;SDS011;39400;49.744;7.012;2022-12-20T08:01:36;4.45;;;1.98;;
33453;SDS011;39400;49.744;7.012;2022-12-20T08:04:03;4.68;;;1.50;;
33453;SDS011;39400;49.744;7.012;2022-12-20T08:06:33;2.47;;;1.40;;
33453;SDS011;39400;49.744;7.012;2022-12-20T08:09:01;6.68;;;2.05;;
33453;SDS011;39400;49.744;7.012;2022-12-20T08:11:29;6.43;;;2.05;;
33453;SDS011;39400;49.744;7.012;2022-12-20T08:13:57;5.82;;;1.75;;
33453;SDS011;39400;49.744;7.012;2022-12-20T08:16:22;4.60;;;1.20;;
33453;SDS011;39400;49.744;7.012;2022-12-20T08:18:48;4.90;;;1.63;;
33453;SDS011;39400;49.744;7.012;2022-12-20T08:21:13;4.28;;;1.70;;
33453;SDS011;39400;49.744;7.012;2022-12-20T08:23:39;5.30;;;1.95;;
33453;SDS011;39400;49.744;7.012;2022-12-20T08:26:05;2.95;;;1.63;;
33453;SDS011;39400;49.744;7.012;2022-12-20T08:28:30;3.88;;;1.85;;
33453;SDS011;39400;49.744;7.012;2022-12-20T08:31:13;6.78;;;2.00;;
33453;SDS011;39400;49.744;7.012;2022-12-20T08:33:39;4.47;;;2.65;;
33453;SDS011;39400;49.744;7.012;2022-12-20T08:36:06;3.58;;;1.48;;
33453;SDS011;39400;49.744;7.012;2022-12-20T08:38:34;2.63;;;1.20;;
33453;SDS011;39400;49.744;7.012;2022-12-20T08:41:04;3.95;;;1.65;;
33453;SDS011;39400;49.744;7.012;2022-12-20T08:43:34;2.83;;;1.67;;
33453;SDS011;39400;49.744;7.012;2022-12-20T08:46:00;3.85;;;1.23;;
33453;SDS011;39400;49.744;7.012;2022-12-20T08:48:26;2.40;;;1.40;;
33453;SDS011;39400;49.744;7.012;2022-12-20T08:50:57;7.03;;;1.60;;
33453;SDS011;39400;49.744;7.012;2022-12-20T08:53:24;4.63;;;1.33;;
33453;SDS011;39400;49.744;7.012;2022-12-20T08:55:50;2.72;;;1.60;;
33453;SDS011;39400;49.744;7.012;2022-12-20T08:58:15;6.63;;;2.05;;
33453;SDS011;39400;49.744;7.012;2022-12-20T09:00:41;4.28;;;1.60;;
33453;SDS011;39400;49.744;7.012;2022-12-20T09:03:07;3.22;;;1.38;;
33453;SDS011;39400;49.744;7.012;2022-12-20T09:05:32;2.55;;;1.20;;
33453;SDS011;39400;49.744;7.012;2022-12-20T09:07:58;6.53;;;2.42;;
33453;SDS011;39400;49.744;7.012;2022-12-20T09:10:23;4.35;;;1.60;;
33453;SDS011;39400;49.744;7.012;2022-12-20T09:12:49;5.45;;;1.63;;
33453;SDS011;39400;49.744;7.012;2022-12-20T09:15:16;2.88;;;1.20;;
33453;SDS011;39400;49.744;7.012;2022-12-20T09:17:41;1.77;;;1.02;;
33453;SDS011;39400;49.744;7.012;2022-12-20T09:20:06;7.65;;;2.10;;
33453;SDS011;39400;49.744;7.012;2022-12-20T09:22:32;5.50;;;1.27;;
33453;SDS011;39400;49.744;7.012;2022-12-20T09:24:57;2.63;;;1.17;;
33453;SDS011;39400;49.744;7.012;2022-12-20T09:27:23;2.55;;;1.50;;
33453;SDS011;39400;49.744;7.012;2022-12-20T09:29:48;3.55;;;1.30;;
33453;SDS011;39400;49.744;7.012;2022-12-20T09:32:13;7.22;;;1.92;;
33453;SDS011;39400;49.744;7.012;2022-12-20T09:34:39;4.85;;;1.42;;
33453;SDS011;39400;49.744;7.012;2022-12-20T09:37:04;7.03;;;1.80;;
33453;SDS011;39400;49.744;7.012;2022-12-20T09:39:29;2.85;;;1.60;;
33453;SDS011;39400;49.744;7.012;2022-12-20T09:41:55;3.75;;;1.77;;
33453;SDS011;39400;49.744;7.012;2022-12-20T09:47:18;2.25;;;1.35;;
33453;SDS011;39400;49.744;7.012;2022-12-20T09:49:48;6.40;;;1.75;;
33453;SDS011;39400;49.744;7.012;2022-12-20T09:52:22;3.33;;;1.30;;
33453;SDS011;39400;49.744;7.012;2022-12-20T10:01:10;2.70;;;1.40;;
33453;SDS011;39400;49.744;7.012;2022-12-20T10:03:40;5.90;;;1.85;;
33453;SDS011;39400;49.744;7.012;2022-12-20T10:11:57;3.50;;;1.75;;
33453;SDS011;39400;49.744;7.012;2022-12-20T10:16:46;3.30;;;1.55;;
33453;SDS011;39400;49.744;7.012;2022-12-20T10:22:11;2.88;;;1.38;;
33453;SDS011;39400;49.744;7.012;2022-12-20T10:24:57;5.38;;;1.75;;
33453;SDS011;39400;49.744;7.012;2022-12-20T10:27:26;6.30;;;1.85;;
33453;SDS011;39400;49.744;7.012;2022-12-20T10:29:52;6.18;;;1.95;;
33453;SDS011;39400;49.744;7.012;2022-12-20T10:32:18;4.60;;;1.85;;
33453;SDS011;39400;49.744;7.012;2022-12-20T10:34:50;3.47;;;1.50;;
33453;SDS011;39400;49.744;7.012;2022-12-20T10:37:25;5.72;;;2.00;;
33453;SDS011;39400;49.744;7.012;2022-12-20T10:39:50;4.85;;;1.63;;
33453;SDS011;39400;49.744;7.012;2022-12-20T10:42:28;4.18;;;1.73;;
33453;SDS011;39400;49.744;7.012;2022-12-20T10:45:02;2.72;;;1.27;;
33453;SDS011;39400;49.744;7.012;2022-12-20T10:47:37;2.95;;;1.60;;
33453;SDS011;39400;49.744;7.012;2022-12-20T10:50:18;2.95;;;1.65;;
33453;SDS011;39400;49.744;7.012;2022-12-20T10:55:35;4.57;;;1.55;;
33453;SDS011;39400;49.744;7.012;2022-12-20T10:58:11;7.53;;;2.30;;
33453;SDS011;39400;49.744;7.012;2022-12-20T11:00:40;3.15;;;1.60;;
33453;SDS011;39400;49.744;7.012;2022-12-20T11:03:10;5.95;;;2.15;;
33453;SDS011;39400;49.744;7.012;2022-12-20T11:05:54;3.58;;;2.10;;
33453;SDS011;39400;49.744;7.012;2022-12-20T11:08:39;5.10;;;1.98;;
33453;SDS011;39400;49.744;7.012;2022-12-20T11:11:15;3.85;;;1.67;;
33453;SDS011;39400;49.744;7.012;2022-12-20T11:13:46;5.07;;;1.75;;
33453;SDS011;39400;49.744;7.012;2022-12-20T11:16:27;3.88;;;1.40;;
33453;SDS011;39400;49.744;7.012;2022-12-20T11:22:44;5.68;;;1.85;;
33453;SDS011;39400;49.744;7.012;2022-12-20T11:24:54;3.65;;;1.83;;
33453;SDS011;39400;49.744;7.012;2022-12-20T11:27:31;6.05;;;1.80;;
33453;SDS011;39400;49.744;7.012;2022-12-20T11:30:14;5.70;;;2.53;;
33453;SDS011;39400;49.744;7.012;2022-12-20T11:33:45;5.78;;;1.75;;
33453;SDS011;39400;49.744;7.012;2022-12-20T11:36:01;3.67;;;1.75;;
33453;SDS011;39400;49.744;7.012;2022-12-20T11:38:37;5.28;;;2.03;;
33453;SDS011;39400;49.744;7.012;2022-12-20T11:51:42;4.18;;;1.67;;
33453;SDS011;39400;49.744;7.012;2022-12-20T11:57:12;6.20;;;1.60;;
33453;SDS011;39400;49.744;7.012;2022-12-20T11:59:48;3.53;;;1.65;;
33453;SDS011;39400;49.744;7.012;2022-12-20T12:02:33;4.35;;;1.35;;
33453;SDS011;39400;49.744;7.012;2022-12-20T12:05:04;4.53;;;1.98;;
33453;SDS011;39400;49.744;7.012;2022-12-20T12:07:37;5.07;;;1.88;;
33453;SDS011;39400;49.744;7.012;2022-12-20T12:10:11;4.03;;;1.95;;
33453;SDS011;39400;49.744;7.012;2022-12-20T12:12:42;5.07;;;1.50;;
33453;SDS011;39400;49.744;7.012;2022-12-20T12:23:18;5.38;;;1.20;;
33453;SDS011;39400;49.744;7.012;2022-12-20T12:26:09;3.15;;;1.40;;
33453;SDS011;39400;49.744;7.012;2022-12-20T12:28:37;3.13;;;1.33;;
33453;SDS011;39400;49.744;7.012;2022-12-20T12:31:03;4.32;;;1.42;;
33453;SDS011;39400;49.744;7.012;2022-12-20T12:33:42;2.92;;;1.58;;
33453;SDS011;39400;49.744;7.012;2022-12-20T12:44:58;2.78;;;1.40;;
33453;SDS011;39400;49.744;7.012;2022-12-20T12:50:24;2.63;;;1.38;;
33453;SDS011;39400;49.744;7.012;2022-12-20T12:52:56;3.70;;;1.50;;
33453;SDS011;39400;49.744;7.012;2022-12-20T12:58:12;7.40;;;2.35;;
33453;SDS011;39400;49.744;7.012;2022-12-20T13:00:46;4.68;;;1.83;;
33453;SDS011;39400;49.744;7.012;2022-12-20T13:11:37;6.53;;;1.40;;
33453;SDS011;39400;49.744;7.012;2022-12-20T13:16:42;1.83;;;1.08;;
33453;SDS011;39400;49.744;7.012;2022-12-20T13:21:59;10.68;;;1.48;;
33453;SDS011;39400;49.744;7.012;2022-12-20T13:25:02;1.70;;;1.00;;
33453;SDS011;39400;49.744;7.012;2022-12-20T13:27:47;4.35;;;1.55;;
33453;SDS011;39400;49.744;7.012;2022-12-20T13:32:52;3.83;;;1.30;;
33453;SDS011;39400;49.744;7.012;2022-12-20T13:37:58;6.38;;;2.58;;
33453;SDS011;39400;49.744;7.012;2022-12-20T13:48:15;5.18;;;1.38;;
33453;SDS011;39400;49.744;7.012;2022-12-20T13:50:51;3.50;;;1.30;;
33453;SDS011;39400;49.744;7.012;2022-12-20T13:53:19;4.82;;;1.60;;
33453;SDS011;39400;49.744;7.012;2022-12-20T13:55:49;3.42;;;1.42;;
33453;SDS011;39400;49.744;7.012;2022-12-20T13:58:16;4.45;;;1.45;;
33453;SDS011;39400;49.744;7.012;2022-12-20T14:00:44;5.57;;;1.73;;
33453;SDS011;39400;49.744;7.012;2022-12-20T14:03:23;3.97;;;1.50;;
33453;SDS011;39400;49.744;7.012;2022-12-20T14:05:57;4.72;;;1.63;;
33453;SDS011;39400;49.744;7.012;2022-12-20T14:08:26;5.03;;;1.67;;
33453;SDS011;39400;49.744;7.012;2022-12-20T14:11:05;6.45;;;2.13;;
33453;SDS011;39400;49.744;7.012;2022-12-20T14:13:55;5.95;;;1.42;;
33453;SDS011;39400;49.744;7.012;2022-12-20T14:16:28;4.88;;;2.25;;
33453;SDS011;39400;49.744;7.012;2022-12-20T14:21:20;7.32;;;1.90;;
33453;SDS011;39400;49.744;7.012;2022-12-20T14:23:47;4.43;;;1.90;;
33453;SDS011;39400;49.744;7.012;2022-12-20T14:26:17;2.90;;;1.38;;
33453;SDS011;39400;49.744;7.012;2022-12-20T14:28:47;3.58;;;1.55;;
33453;SDS011;39400;49.744;7.012;2022-12-20T14:36:30;12.18;;;2.00;;
33453;SDS011;39400;49.744;7.012;2022-12-20T14:38:56;2.17;;;1.25;;
33453;SDS011;39400;49.744;7.012;2022-12-20T14:41:27;2.85;;;1.60;;
33453;SDS011;39400;49.744;7.012;2022-12-20T14:43:55;8.95;;;3.50;;
33453;SDS011;39400;49.744;7.012;2022-12-20T14:46:22;5.43;;;2.28;;
33453;SDS011;39400;49.744;7.012;2022-12-20T14:48:47;7.47;;;3.67;;
33453;SDS011;39400;49.744;7.012;2022-12-20T14:51:22;4.35;;;2.80;;
33453;SDS011;39400;49.744;7.012;2022-12-20T14:53:48;4.63;;;2.03;;
33453;SDS011;39400;49.744;7.012;2022-12-20T14:56:16;4.25;;;1.88;;
33453;SDS011;39400;49.744;7.012;2022-12-20T14:58:44;2.47;;;1.67;;
33453;SDS011;39400;49.744;7.012;2022-12-20T15:01:18;2.25;;;1.33;;
33453;SDS011;39400;49.744;7.012;2022-12-20T15:03:55;3.00;;;1.27;;
33453;SDS011;39400;49.744;7.012;2022-12-20T15:06:55;4.75;;;1.70;;
33453;SDS011;39400;49.744;7.012;2022-12-20T15:09:14;3.45;;;1.67;;
33453;SDS011;39400;49.744;7.012;2022-12-20T15:11:41;5.55;;;1.33;;
33453;SDS011;39400;49.744;7.012;2022-12-20T15:14:24;5.18;;;1.85;;
33453;SDS011;39400;49.744;7.012;2022-12-20T15:16:58;7.93;;;2.05;;
33453;SDS011;39400;49.744;7.012;2022-12-20T15:19:24;6.25;;;1.83;;
33453;SDS011;39400;49.744;7.012;2022-12-20T15:21:49;5.38;;;1.67;;
33453;SDS011;39400;49.744;7.012;2022-12-20T15:24:15;4.22;;;1.70;;
33453;SDS011;39400;49.744;7.012;2022-12-20T15:26:47;8.43;;;1.77;;
33453;SDS011;39400;49.744;7.012;2022-12-20T15:29:17;5.10;;;2.00;;
33453;SDS011;39400;49.744;7.012;2022-12-20T15:32:14;4.05;;;1.77;;
33453;SDS011;39400;49.744;7.012;2022-12-20T15:34:44;4.03;;;1.80;;
33453;SDS011;39400;49.744;7.012;2022-12-20T15:37:13;1.95;;;1.10;;
33453;SDS011;39400;49.744;7.012;2022-12-20T15:39:40;5.63;;;2.10;;
33453;SDS011;39400;49.744;7.012;2022-12-20T15:42:12;4.55;;;1.30;;
33453;SDS011;39400;49.744;7.012;2022-12-20T15:44:42;5.90;;;1.67;;
33453;SDS011;39400;49.744;7.012;2022-12-20T15:47:10;3.25;;;1.38;;
33453;SDS011;39400;49.744;7.012;2022-12-20T15:49:37;2.58;;;1.20;;
33453;SDS011;39400;49.744;7.012;2022-12-20T15:52:02;5.38;;;2.20;;
33453;SDS011;39400;49.744;7.012;2022-12-20T15:54:29;5.20;;;1.70;;
33453;SDS011;39400;49.744;7.012;2022-12-20T15:56:59;3.67;;;1.40;;
33453;SDS011;39400;49.744;7.012;2022-12-20T15:59:27;6.07;;;1.77;;
33453;SDS011;39400;49.744;7.012;2022-12-20T16:01:52;5.45;;;1.90;;
33453;SDS011;39400;49.744;7.012;2022-12-20T16:04:18;5.78;;;1.80;;
33453;SDS011;39400;49.744;7.012;2022-12-20T16:06:45;7.82;;;2.28;;
33453;SDS011;39400;49.744;7.012;2022-12-20T16:09:12;7.50;;;2.30;;
33453;SDS011;39400;49.744;7.012;2022-12-20T16:11:38;7.13;;;1.98;;
33453;SDS011;39400;49.744;7.012;2022-12-20T16:14:03;5.13;;;2.13;;
33453;SDS011;39400;49.744;7.012;2022-12-20T16:16:31;6.93;;;2.90;;
33453;SDS011;39400;49.744;7.012;2022-12-20T16:18:58;3.80;;;2.07;;
33453;SDS011;39400;49.744;7.012;2022-12-20T16:21:24;5.13;;;2.55;;
33453;SDS011;39400;49.744;7.012;2022-12-20T16:23:52;5.22;;;1.60;;
33453;SDS011;39400;49.744;7.012;2022-12-20T16:26:19;5.82;;;1.90;;
33453;SDS011;39400;49.744;7.012;2022-12-20T16:28:46;5.88;;;2.35;;
33453;SDS011;39400;49.744;7.012;2022-12-20T16:31:28;5.93;;;2.08;;
33453;SDS011;39400;49.744;7.012;2022-12-20T16:33:55;7.50;;;2.22;;
33453;SDS011;39400;49.744;7.012;2022-12-20T16:36:23;4.00;;;1.75;;
33453;SDS011;39400;49.744;7.012;2022-12-20T16:38:49;15.77;;;2.22;;
33453;SDS011;39400;49.744;7.012;2022-12-20T16:41:16;4.30;;;1.83;;
33453;SDS011;39400;49.744;7.012;2022-12-20T16:43:43;3.33;;;1.65;;
33453;SDS011;39400;49.744;7.012;2022-12-20T16:46:10;6.68;;;2.17;;
33453;SDS011;39400;49.744;7.012;2022-12-20T16:48:37;7.75;;;2.65;;
33453;SDS011;39400;49.744;7.012;2022-12-20T16:51:02;4.88;;;1.90;;
33453;SDS011;39400;49.744;7.012;2022-12-20T16:53:28;4.90;;;2.55;;
33453;SDS011;39400;49.744;7.012;2022-12-20T16:55:53;6.07;;;2.47;;